createdAt,value
2023-10-04T00:01:30.509Z,55.00
2023-10-04T00:03:57.393Z,55.33
2023-10-04T00:08:50.968Z,52.00
2023-10-04T00:11:17.796Z,60.08
2023-10-04T00:13:47.274Z,48.72
2023-10-04T00:16:14.606Z,57.95
2023-10-04T00:18:41.372Z,57.00
2023-10-04T00:21:11.699Z,42.35
2023-10-04T00:23:42.192Z,45.00
2023-10-04T00:26:09.580Z,49.63
2023-10-04T00:28:39.318Z,48.72
2023-10-04T00:31:06.940Z,48.40
2023-10-04T00:33:36.709Z,45.75
2023-10-04T00:36:07.191Z,42.67
2023-10-04T00:38:34.055Z,60.22
2023-10-04T00:41:00.951Z,61.65
2023-10-04T00:43:27.731Z,41.85
2023-10-04T00:45:54.763Z,60.55
2023-10-04T00:51:02.892Z,44.90
2023-10-04T00:53:30.968Z,47.05
2023-10-04T00:55:58.531Z,54.30
2023-10-04T00:58:26.697Z,58.70
2023-10-04T01:00:53.807Z,48.38
2023-10-04T01:05:49.111Z,55.45
2023-10-04T01:08:16.973Z,57.55
2023-10-04T01:10:45.876Z,60.53
2023-10-04T01:13:12.982Z,65.25
2023-10-04T01:20:39.768Z,38.75
2023-10-04T01:23:13.714Z,42.03
2023-10-04T01:25:42.564Z,44.70
2023-10-04T01:28:18.227Z,44.38
2023-10-04T01:30:53.201Z,55.38
2023-10-04T01:33:20.577Z,42.00
2023-10-04T01:35:55.111Z,42.58
2023-10-04T01:38:33.496Z,45.70
2023-10-04T01:41:00.575Z,50.10
2023-10-04T01:43:28.571Z,53.20
2023-10-04T01:45:58.764Z,47.53
2023-10-04T01:48:28.066Z,61.42
2023-10-04T01:50:55.175Z,43.22
2023-10-04T01:53:27.752Z,43.90
2023-10-04T01:55:57.838Z,41.80
2023-10-04T01:58:25.105Z,47.92
2023-10-04T02:00:54.244Z,47.25
2023-10-04T02:03:21.821Z,42.70
2023-10-04T02:05:58.315Z,56.95
2023-10-04T02:08:26.155Z,54.05
2023-10-04T02:10:53.689Z,59.33
2023-10-04T02:13:20.664Z,51.55
2023-10-04T02:18:21.024Z,45.00
2023-10-04T02:20:50.118Z,57.03
2023-10-04T02:23:18.125Z,49.33
2023-10-04T02:25:46.842Z,31.27
2023-10-04T02:28:19.751Z,38.67
2023-10-04T02:30:49.641Z,48.65
2023-10-04T02:33:18.348Z,42.72
2023-10-04T02:35:48.507Z,53.22
2023-10-04T02:38:27.666Z,47.30
2023-10-04T02:40:55.444Z,51.35
2023-10-04T02:43:26.512Z,54.70
2023-10-04T02:45:54.593Z,44.80
2023-10-04T02:48:21.753Z,46.25
2023-10-04T02:53:26.185Z,65.00
2023-10-04T02:55:58.423Z,67.45
2023-10-04T02:58:31.676Z,61.35
2023-10-04T03:00:58.934Z,62.33
2023-10-04T03:03:26.088Z,52.75
2023-10-04T03:05:59.080Z,68.53
2023-10-04T03:08:28.301Z,52.55
2023-10-04T03:10:56.773Z,65.90
2023-10-04T03:13:27.187Z,59.75
2023-10-04T03:15:59.053Z,64.40
2023-10-04T03:18:29.351Z,60.97
2023-10-04T03:21:02.371Z,56.72
2023-10-04T03:23:37.101Z,50.58
2023-10-04T03:26:14.065Z,62.38
2023-10-04T03:28:42.563Z,47.35
2023-10-04T03:31:15.742Z,53.28
2023-10-04T03:33:46.766Z,42.88
2023-10-04T03:36:21.186Z,43.40
2023-10-04T03:38:55.150Z,44.22
2023-10-04T03:41:22.718Z,41.17
2023-10-04T03:43:52.176Z,44.35
2023-10-04T03:48:54.002Z,47.22
2023-10-04T03:51:23.038Z,39.90
2023-10-04T03:53:52.505Z,35.42
2023-10-04T03:56:22.035Z,36.47
2023-10-04T03:58:50.497Z,41.55
2023-10-04T04:01:18.484Z,44.88
2023-10-04T04:06:18.485Z,40.92
2023-10-04T04:08:47.986Z,42.55
2023-10-04T04:11:15.597Z,46.50
2023-10-04T04:13:43.236Z,301.40
2023-10-04T04:16:12.815Z,47.97
2023-10-04T04:18:41.741Z,64.07
2023-10-04T04:21:09.824Z,45.67
2023-10-04T04:23:38.000Z,44.72
2023-10-04T04:26:09.479Z,45.63
2023-10-04T04:28:38.890Z,36.42
2023-10-04T04:31:16.600Z,34.85
2023-10-04T04:33:45.950Z,39.42
2023-10-04T04:36:29.097Z,43.33
2023-10-04T04:39:07.343Z,37.40
2023-10-04T04:41:36.816Z,41.85
2023-10-04T04:44:08.826Z,32.83
2023-10-04T04:46:37.072Z,30.77
2023-10-04T04:49:05.427Z,36.33
2023-10-04T04:51:33.085Z,37.70
2023-10-04T04:54:00.252Z,44.53
2023-10-04T04:56:33.039Z,51.67
2023-10-04T04:59:10.511Z,36.13
2023-10-04T05:01:41.268Z,36.08
2023-10-04T05:04:09.364Z,39.72
2023-10-04T05:06:38.178Z,35.90
2023-10-04T05:09:06.701Z,33.40
2023-10-04T05:11:33.986Z,36.30
2023-10-04T05:14:01.566Z,35.08
2023-10-04T05:16:28.375Z,32.47
2023-10-04T05:18:55.675Z,50.40
2023-10-04T05:21:22.960Z,59.03
2023-10-04T05:23:49.902Z,28.00
2023-10-04T05:26:16.703Z,26.48
2023-10-04T05:28:43.452Z,27.13
2023-10-04T05:31:10.476Z,24.55
2023-10-04T05:33:37.758Z,22.50
2023-10-04T05:36:05.162Z,26.17
2023-10-04T05:38:33.488Z,27.52
2023-10-04T05:41:02.181Z,30.45
2023-10-04T05:43:30.807Z,26.77
2023-10-04T05:45:58.551Z,26.58
2023-10-04T05:48:27.630Z,32.78
2023-10-04T05:50:59.691Z,27.33
2023-10-04T05:53:27.687Z,33.15
2023-10-04T05:55:55.416Z,30.65
2023-10-04T05:58:22.913Z,29.50
2023-10-04T06:00:57.911Z,25.00
2023-10-04T06:03:25.105Z,31.20
2023-10-04T06:05:54.984Z,30.90
2023-10-04T06:08:23.074Z,27.83
2023-10-04T06:10:52.713Z,29.35
2023-10-04T06:13:24.014Z,28.20
2023-10-04T06:15:54.894Z,21.85
2023-10-04T06:18:27.671Z,58.78
2023-10-04T06:20:54.827Z,23.08
2023-10-04T06:23:22.674Z,23.55
2023-10-04T06:25:51.218Z,32.60
2023-10-04T06:28:18.768Z,21.75
2023-10-04T06:30:49.903Z,21.65
2023-10-04T06:33:17.394Z,20.75
2023-10-04T06:35:44.967Z,21.42
2023-10-04T06:38:13.735Z,17.17
2023-10-04T06:40:41.152Z,17.27
2023-10-04T06:43:12.113Z,18.23
2023-10-04T06:45:41.239Z,16.15
2023-10-04T06:48:09.293Z,17.85
2023-10-04T06:50:40.293Z,15.68
2023-10-04T06:53:10.330Z,14.05
2023-10-04T06:55:38.754Z,11.30
2023-10-04T06:58:07.996Z,11.90
2023-10-04T07:00:38.517Z,10.68
2023-10-04T07:03:06.674Z,13.00
2023-10-04T07:05:38.589Z,10.77
2023-10-04T07:08:07.951Z,8.10
2023-10-04T07:10:36.251Z,10.30
2023-10-04T07:13:04.465Z,8.98
2023-10-04T07:15:36.643Z,8.45
2023-10-04T07:18:08.450Z,7.18
2023-10-04T07:20:36.126Z,7.15
2023-10-04T07:23:09.305Z,10.88
2023-10-04T07:25:39.357Z,12.38
2023-10-04T07:28:10.714Z,8.55
2023-10-04T07:30:40.812Z,8.40
2023-10-04T07:33:11.442Z,10.07
2023-10-04T07:35:38.683Z,6.80
2023-10-04T07:38:06.337Z,5.55
2023-10-04T07:40:33.759Z,6.95
2023-10-04T07:43:02.361Z,7.70
2023-10-04T07:45:30.632Z,5.15
2023-10-04T07:47:58.686Z,10.55
2023-10-04T07:50:27.356Z,7.78
2023-10-04T07:53:00.981Z,5.95
2023-10-04T07:55:28.749Z,6.55
2023-10-04T07:58:05.682Z,6.03
2023-10-04T08:00:37.855Z,10.70
2023-10-04T08:03:05.780Z,3.55
2023-10-04T08:05:33.983Z,7.07
2023-10-04T08:08:07.154Z,4.80
2023-10-04T08:10:37.016Z,6.25
2023-10-04T08:13:05.501Z,8.20
2023-10-04T08:15:36.673Z,7.78
2023-10-04T08:18:05.326Z,17.73
2023-10-04T08:20:34.993Z,6.47
2023-10-04T08:23:03.951Z,6.75
2023-10-04T08:25:33.200Z,6.57
2023-10-04T08:28:01.191Z,5.68
2023-10-04T08:30:29.492Z,7.35
2023-10-04T08:32:56.385Z,8.73
2023-10-04T08:37:54.287Z,9.23
2023-10-04T08:40:22.558Z,9.23
2023-10-04T08:42:51.770Z,4.05
2023-10-04T08:45:22.858Z,9.50
2023-10-04T08:47:51.881Z,5.10
2023-10-04T08:50:39.730Z,4.72
2023-10-04T08:53:12.953Z,3.83
2023-10-04T08:55:42.415Z,5.25
2023-10-04T08:58:10.808Z,7.05
2023-10-04T09:00:44.477Z,4.85
2023-10-04T09:03:14.040Z,4.43
2023-10-04T09:05:47.391Z,3.47
2023-10-04T09:08:17.945Z,4.65
2023-10-04T09:10:46.389Z,4.07
2023-10-04T09:13:13.934Z,3.47
2023-10-04T09:15:41.849Z,5.40
2023-10-04T09:18:09.449Z,5.20
2023-10-04T09:20:38.038Z,5.65
2023-10-04T09:23:17.063Z,7.85
2023-10-04T09:25:46.635Z,6.70
2023-10-04T09:28:13.557Z,4.72
2023-10-04T09:33:30.057Z,4.87
2023-10-04T09:35:57.224Z,5.80
2023-10-04T09:40:58.266Z,4.30
2023-10-04T09:43:36.495Z,4.93
2023-10-04T09:46:08.818Z,5.38
2023-10-04T09:48:43.193Z,5.63
2023-10-04T09:51:11.034Z,5.05
2023-10-04T09:53:41.951Z,12.00
2023-10-04T09:56:13.706Z,6.35
2023-10-04T09:59:00.783Z,3.05
2023-10-04T10:01:30.539Z,6.07
2023-10-04T10:04:04.247Z,3.58
2023-10-04T10:06:36.323Z,4.20
2023-10-04T10:09:06.336Z,3.03
2023-10-04T10:11:34.089Z,5.22
2023-10-04T10:14:05.472Z,15.18
2023-10-04T10:16:35.382Z,4.07
2023-10-04T10:19:04.948Z,5.15
2023-10-04T10:22:07.414Z,5.03
2023-10-04T10:24:34.904Z,3.67
2023-10-04T10:27:09.044Z,5.80
2023-10-04T10:29:37.669Z,6.72
2023-10-04T10:32:10.461Z,8.10
2023-10-04T10:34:37.413Z,2.78
2023-10-04T10:37:23.685Z,3.97
2023-10-04T10:39:52.583Z,3.65
2023-10-04T10:42:20.390Z,4.47
2023-10-04T10:44:49.193Z,10.68
2023-10-04T10:47:26.900Z,4.10
2023-10-04T10:49:57.585Z,5.93
2023-10-04T10:52:35.902Z,2.88
2023-10-04T10:55:06.900Z,4.97
2023-10-04T10:57:38.023Z,4.53
2023-10-04T11:00:20.431Z,5.43
2023-10-04T11:02:55.012Z,7.38
2023-10-04T11:05:23.314Z,6.78
2023-10-04T11:07:51.908Z,4.88
2023-10-04T11:10:18.926Z,3.53
2023-10-04T11:12:47.987Z,6.80
2023-10-04T11:15:19.314Z,6.40
2023-10-04T11:17:47.445Z,4.00
2023-10-04T11:20:19.244Z,4.97
2023-10-04T11:22:46.925Z,4.40
2023-10-04T11:25:14.884Z,5.43
2023-10-04T11:27:51.750Z,4.22
2023-10-04T11:30:20.237Z,5.30
2023-10-04T11:32:47.704Z,6.28
2023-10-04T11:35:19.912Z,9.05
2023-10-04T11:37:49.935Z,6.53
2023-10-04T11:40:26.332Z,5.05
2023-10-04T11:43:04.665Z,9.45
2023-10-04T11:45:33.186Z,4.60
2023-10-04T11:48:09.355Z,5.80
2023-10-04T11:50:46.950Z,4.03
2023-10-04T11:53:14.565Z,3.15
2023-10-04T11:55:41.800Z,6.95
2023-10-04T11:58:11.658Z,7.00
2023-10-04T12:00:38.938Z,12.93
2023-10-04T12:03:07.522Z,4.82
2023-10-04T12:05:34.670Z,4.00
2023-10-04T12:08:02.455Z,4.03
2023-10-04T12:10:29.368Z,6.82
2023-10-04T12:12:59.181Z,5.72
2023-10-04T12:15:26.770Z,5.18
2023-10-04T12:17:53.821Z,3.50
2023-10-04T12:20:22.159Z,5.30
2023-10-04T12:22:53.183Z,3.55
2023-10-04T12:25:23.136Z,5.03
2023-10-04T12:27:55.416Z,3.60
2023-10-04T12:30:25.122Z,4.15
2023-10-04T12:32:52.832Z,4.82
2023-10-04T12:35:19.788Z,5.00
2023-10-04T12:37:46.745Z,4.93
2023-10-04T12:40:33.885Z,3.65
2023-10-04T12:43:01.015Z,5.87
2023-10-04T12:45:30.592Z,3.63
2023-10-04T12:47:57.922Z,5.38
2023-10-04T12:50:26.214Z,4.22
2023-10-04T12:52:53.067Z,5.88
2023-10-04T12:57:46.976Z,4.55
2023-10-04T13:00:17.407Z,4.60
2023-10-04T13:02:45.752Z,4.80
2023-10-04T13:05:15.614Z,4.43
2023-10-04T13:07:44.178Z,5.15
2023-10-04T13:10:12.099Z,4.13
2023-10-04T13:12:39.807Z,5.57
2023-10-04T13:15:08.080Z,3.85
2023-10-04T13:17:38.822Z,4.80
2023-10-04T13:20:10.590Z,6.38
2023-10-04T13:22:37.490Z,9.23
2023-10-04T13:25:08.105Z,3.85
2023-10-04T13:27:36.196Z,8.70
2023-10-04T13:30:03.320Z,5.03
2023-10-04T13:32:31.448Z,5.78
2023-10-04T13:34:58.762Z,4.68
2023-10-04T13:37:25.555Z,6.25
2023-10-04T13:39:52.909Z,3.80
2023-10-04T13:42:28.672Z,7.15
2023-10-04T13:44:58.503Z,18.35
2023-10-04T13:47:25.474Z,6.85
2023-10-04T13:49:52.302Z,6.57
2023-10-04T13:52:20.397Z,4.47
2023-10-04T13:54:54.797Z,6.68
2023-10-04T13:57:24.051Z,7.30
2023-10-04T13:59:50.893Z,5.72
2023-10-04T14:02:20.157Z,10.60
2023-10-04T14:04:47.487Z,6.45
2023-10-04T14:07:15.178Z,5.05
2023-10-04T14:09:42.143Z,8.80
2023-10-04T14:14:46.697Z,9.75
2023-10-04T14:17:14.856Z,10.90
2023-10-04T14:19:43.696Z,5.00
2023-10-04T14:22:11.435Z,7.43
2023-10-04T14:24:38.273Z,7.88
2023-10-04T14:29:32.028Z,4.53
2023-10-04T14:34:26.212Z,4.82
2023-10-04T14:36:52.942Z,5.88
2023-10-04T14:39:22.871Z,7.93
2023-10-04T14:41:50.008Z,6.75
2023-10-04T14:44:19.957Z,5.07
2023-10-04T14:46:49.863Z,5.07
2023-10-04T14:49:19.934Z,4.13
2023-10-04T14:51:47.396Z,4.28
2023-10-04T14:54:15.252Z,6.78
2023-10-04T14:56:43.087Z,7.60
2023-10-04T14:59:10.051Z,5.63
2023-10-04T15:04:04.978Z,6.35
2023-10-04T15:06:32.093Z,7.57
2023-10-04T15:11:30.676Z,5.18
2023-10-04T15:13:59.337Z,5.07
2023-10-04T15:16:26.510Z,5.93
2023-10-04T15:18:54.533Z,11.05
2023-10-04T15:21:21.500Z,5.82
2023-10-04T15:23:48.337Z,10.18
2023-10-04T15:28:45.435Z,7.40
2023-10-04T15:31:14.608Z,193.70
2023-10-04T15:33:42.533Z,11.30
2023-10-04T15:36:10.327Z,7.82
2023-10-04T15:38:37.992Z,10.32
2023-10-04T15:41:04.839Z,7.72
2023-10-04T15:43:31.648Z,6.53
2023-10-04T15:45:59.562Z,6.53
2023-10-04T15:48:26.613Z,8.85
2023-10-04T15:53:20.078Z,6.78
2023-10-04T15:55:46.886Z,8.35
2023-10-04T15:58:13.672Z,5.45
2023-10-04T16:00:42.335Z,10.70
2023-10-04T16:03:10.830Z,8.75
2023-10-04T16:05:37.740Z,5.82
2023-10-04T16:08:05.576Z,10.00
2023-10-04T16:10:32.427Z,8.90
2023-10-04T16:13:00.481Z,4.25
2023-10-04T16:15:27.666Z,5.40
2023-10-04T16:17:55.676Z,6.32
2023-10-04T16:20:23.051Z,6.30
2023-10-04T16:22:55.720Z,9.35
2023-10-04T16:25:22.870Z,5.70
2023-10-04T16:27:51.471Z,9.10
2023-10-04T16:30:19.841Z,5.75
2023-10-04T16:32:48.070Z,9.18
2023-10-04T16:35:16.873Z,6.63
2023-10-04T16:37:46.586Z,7.32
2023-10-04T16:40:16.612Z,5.00
2023-10-04T16:42:47.259Z,4.90
2023-10-04T16:45:14.284Z,7.57
2023-10-04T16:50:09.870Z,6.22
2023-10-04T16:55:08.785Z,6.57
2023-10-04T16:57:35.792Z,7.07
2023-10-04T17:02:29.695Z,7.05
2023-10-04T17:04:56.459Z,5.82
2023-10-04T17:07:23.836Z,4.93
2023-10-04T17:09:50.867Z,9.77
2023-10-04T17:12:17.748Z,8.95
2023-10-04T17:14:44.467Z,8.93
2023-10-04T17:17:11.346Z,10.00
2023-10-04T17:19:38.648Z,5.75
2023-10-04T17:22:05.566Z,11.88
2023-10-04T17:24:32.403Z,9.50
2023-10-04T17:26:59.192Z,13.90
2023-10-04T17:29:25.958Z,11.35
2023-10-04T17:31:53.013Z,15.25
2023-10-04T17:34:19.795Z,11.05
2023-10-04T17:36:46.608Z,15.73
2023-10-04T17:39:15.267Z,18.27
2023-10-04T17:41:42.448Z,8.63
2023-10-04T17:44:09.430Z,5.82
2023-10-04T17:49:03.628Z,7.97
2023-10-04T17:54:00.189Z,8.63
2023-10-04T17:56:27.055Z,7.90
2023-10-04T17:58:53.791Z,8.73
2023-10-04T18:01:22.209Z,9.50
2023-10-04T18:03:49.231Z,8.60
2023-10-04T18:06:19.598Z,9.27
2023-10-04T18:08:46.475Z,10.60
2023-10-04T18:11:13.358Z,12.48
2023-10-04T18:13:41.945Z,11.20
2023-10-04T18:16:09.107Z,9.15
2023-10-04T18:18:36.172Z,6.55
2023-10-04T18:23:29.791Z,12.48
2023-10-04T18:25:58.708Z,10.48
2023-10-04T18:28:25.446Z,14.75
2023-10-04T18:30:52.367Z,7.10
2023-10-04T18:33:19.247Z,11.63
2023-10-04T18:35:46.019Z,7.97
2023-10-04T18:38:12.804Z,10.25
2023-10-04T18:40:39.580Z,10.60
2023-10-04T18:43:07.674Z,11.35
2023-10-04T18:45:36.040Z,10.65
2023-10-04T18:48:03.253Z,9.60
2023-10-04T18:50:30.019Z,6.90
2023-10-04T18:52:56.803Z,11.60
2023-10-04T18:55:23.661Z,9.10
2023-10-04T18:57:50.490Z,8.38
2023-10-04T19:00:17.614Z,8.60
2023-10-04T19:05:13.859Z,11.82
2023-10-04T19:07:41.165Z,9.38
2023-10-04T19:10:11.114Z,9.38
2023-10-04T19:12:38.011Z,19.13
2023-10-04T19:15:07.404Z,9.32
2023-10-04T19:17:34.230Z,13.15
2023-10-04T19:20:01.036Z,7.85
2023-10-04T19:22:33.065Z,9.50
2023-10-04T19:25:00.833Z,8.73
2023-10-04T19:27:27.857Z,12.43
2023-10-04T19:29:54.725Z,9.15
2023-10-04T19:32:22.297Z,9.65
2023-10-04T19:34:49.153Z,8.77
2023-10-04T19:37:15.985Z,9.73
2023-10-04T19:39:43.627Z,7.25
2023-10-04T19:42:11.018Z,11.95
2023-10-04T19:44:39.499Z,10.10
2023-10-04T19:47:06.476Z,9.65
2023-10-04T19:49:37.463Z,10.63
2023-10-04T19:52:07.263Z,13.18
2023-10-04T19:54:34.139Z,8.85
2023-10-04T19:57:00.861Z,13.02
2023-10-04T19:59:28.922Z,110.55
2023-10-04T20:01:55.690Z,14.52
2023-10-04T20:04:24.243Z,11.57
2023-10-04T20:06:51.765Z,11.98
2023-10-04T20:09:26.598Z,10.20
2023-10-04T20:11:53.911Z,10.88
2023-10-04T20:14:20.735Z,12.23
2023-10-04T20:16:50.490Z,14.70
2023-10-04T20:19:18.725Z,10.52
2023-10-04T20:21:46.338Z,10.10
2023-10-04T20:24:13.467Z,9.60
2023-10-04T20:26:40.244Z,11.00
2023-10-04T20:29:07.064Z,11.98
2023-10-04T20:31:34.513Z,11.85
2023-10-04T20:34:02.422Z,12.65
2023-10-04T20:36:29.323Z,14.55
2023-10-04T20:38:57.418Z,9.27
2023-10-04T20:41:24.422Z,16.35
2023-10-04T20:43:52.681Z,12.07
2023-10-04T20:46:19.486Z,8.27
2023-10-04T20:48:47.403Z,8.00
2023-10-04T20:51:14.273Z,7.10
2023-10-04T20:53:41.068Z,12.02
2023-10-04T20:56:08.024Z,11.27
2023-10-04T20:58:34.794Z,12.18
2023-10-04T21:01:03.111Z,18.98
2023-10-04T21:03:31.666Z,11.80
2023-10-04T21:05:58.630Z,15.43
2023-10-04T21:08:26.021Z,11.57
2023-10-04T21:10:52.740Z,13.25
2023-10-04T21:13:19.923Z,9.63
2023-10-04T21:15:46.738Z,12.07
2023-10-04T21:18:14.110Z,12.82
2023-10-04T21:20:40.864Z,9.93
2023-10-04T21:23:07.705Z,18.73
2023-10-04T21:25:34.628Z,12.65
2023-10-04T21:28:01.441Z,12.93
2023-10-04T21:30:40.077Z,8.98
2023-10-04T21:33:17.706Z,9.88
2023-10-04T21:35:53.622Z,8.75
2023-10-04T21:38:27.530Z,8.65
2023-10-04T21:40:55.639Z,11.75
2023-10-04T21:43:22.380Z,12.32
2023-10-04T21:45:58.464Z,10.48
2023-10-04T21:48:30.470Z,9.43
2023-10-04T21:50:59.359Z,10.45
2023-10-04T21:53:26.398Z,7.95
2023-10-04T21:55:53.346Z,9.52
2023-10-04T21:58:20.597Z,14.82
2023-10-04T22:00:54.725Z,13.20
2023-10-04T22:03:25.337Z,15.20
2023-10-04T22:05:56.946Z,12.88
2023-10-04T22:08:25.382Z,18.95
2023-10-04T22:10:54.749Z,26.95
2023-10-04T22:13:21.478Z,41.05
2023-10-04T22:15:48.805Z,23.63
2023-10-04T22:18:15.628Z,40.22
2023-10-04T22:20:42.793Z,50.83
2023-10-04T22:25:37.516Z,34.35
2023-10-04T22:28:07.430Z,110.25
2023-10-04T22:30:34.973Z,220.00
2023-10-04T22:33:02.015Z,29.00
2023-10-04T22:35:31.018Z,61.58
2023-10-04T22:37:58.251Z,98.25
2023-10-04T22:42:58.997Z,84.13
2023-10-04T22:45:28.016Z,155.15
2023-10-04T22:47:56.575Z,157.70
2023-10-04T22:50:23.910Z,84.00
2023-10-04T22:52:51.713Z,106.72
2023-10-04T22:55:18.518Z,95.22
2023-10-04T22:57:52.518Z,61.65
2023-10-04T23:00:19.876Z,45.85
2023-10-04T23:02:47.272Z,79.20
2023-10-04T23:05:15.051Z,43.80
2023-10-04T23:07:42.959Z,61.55
2023-10-04T23:10:22.754Z,38.88
2023-10-04T23:12:51.577Z,82.82
2023-10-04T23:15:27.495Z,64.38
2023-10-04T23:17:58.071Z,71.03
2023-10-04T23:20:34.935Z,40.80
2023-10-04T23:23:06.611Z,74.70
2023-10-04T23:25:37.193Z,66.40
2023-10-04T23:28:07.277Z,39.28
2023-10-04T23:30:43.039Z,55.95
2023-10-04T23:33:10.853Z,41.33
2023-10-04T23:35:40.903Z,63.08
2023-10-04T23:38:22.324Z,53.70
2023-10-04T23:40:49.816Z,62.53
2023-10-04T23:43:20.075Z,122.55
2023-10-04T23:45:48.085Z,59.63
2023-10-04T23:48:34.779Z,59.85
2023-10-04T23:51:09.445Z,52.80
2023-10-04T23:53:42.715Z,80.28
2023-10-04T23:56:09.629Z,72.25
2023-10-04T23:58:44.941Z,85.50
